Time;durP1;ratioP1;P1;durP2;ratioP2;P2;SDS_P1;SDS_P2;PMS_P1;PMS_P2;Temp;Humidity;BMP_temperature;BMP_pressure;BME280_temperature;BME280_humidity;BME280_pressure;Samples;Min_cycle;Max_cycle;Signal;HPM_P1;HPM_P2
2022/03/07 00:01:51;;;;;;;11.57;8.43;;;5.20;58.00;;;;;;4987292;28;20429;-71
2022/03/07 00:04:17;;;;;;;10.00;7.90;;;4.70;58.10;;;;;;4988121;28;20189;-71
2022/03/07 00:06:47;;;;;;;13.13;9.10;;;4.70;57.40;;;;;;4988327;28;20508;-70
2022/03/07 00:09:13;;;;;;;10.07;8.00;;;5.00;57.00;;;;;;4987448;28;21042;-71
2022/03/07 00:11:40;;;;;;;11.93;9.57;;;4.70;57.10;;;;;;4987807;28;20474;-71
2022/03/07 00:14:06;;;;;;;12.50;8.37;;;5.00;57.70;;;;;;4986223;28;20432;-71
2022/03/07 00:16:31;;;;;;;11.40;8.10;;;4.50;57.30;;;;;;4987985;28;20442;-71
2022/03/07 00:18:58;;;;;;;12.73;8.67;;;4.70;56.40;;;;;;4986523;28;20193;-71
2022/03/07 00:21:25;;;;;;;11.60;7.80;;;4.60;57.20;;;;;;4988066;28;20633;-71
2022/03/07 00:23:50;;;;;;;10.60;7.53;;;4.40;57.10;;;;;;4987917;28;20507;-71
2022/03/07 00:26:19;;;;;;;9.90;7.73;;;4.40;57.40;;;;;;4988257;28;20484;-70
2022/03/07 00:28:46;;;;;;;9.30;7.43;;;4.70;57.40;;;;;;4996120;28;20407;-71
2022/03/07 00:31:12;;;;;;;11.03;8.50;;;4.50;57.60;;;;;;4988116;28;20456;-71
2022/03/07 00:33:38;;;;;;;9.37;7.57;;;4.50;56.80;;;;;;4986375;28;20788;-71
2022/03/07 00:36:04;;;;;;;10.60;8.17;;;4.80;57.30;;;;;;4988099;28;20681;-71
2022/03/07 00:38:30;;;;;;;13.47;8.90;;;4.40;56.50;;;;;;4986976;28;20428;-70
2022/03/07 00:40:56;;;;;;;8.63;7.30;;;4.50;57.30;;;;;;4987689;28;20436;-71
2022/03/07 00:43:22;;;;;;;9.63;7.83;;;4.70;57.70;;;;;;4987220;28;20503;-71
2022/03/07 00:45:48;;;;;;;11.00;7.80;;;4.60;57.80;;;;;;4987878;28;20461;-71
2022/03/07 00:48:15;;;;;;;11.20;8.10;;;4.40;57.60;;;;;;4986516;28;20266;-71
2022/03/07 00:50:42;;;;;;;11.53;8.00;;;4.30;57.00;;;;;;4987881;28;20553;-70
2022/03/07 00:53:16;;;;;;;9.83;8.00;;;4.60;57.40;;;;;;4986829;28;21023;-72
2022/03/07 00:55:42;;;;;;;12.30;8.63;;;4.40;58.60;;;;;;4986901;28;20476;-71
2022/03/07 00:58:08;;;;;;;10.07;8.50;;;4.80;58.50;;;;;;4992120;28;20472;-71
2022/03/07 01:00:34;;;;;;;12.00;8.20;;;4.50;57.80;;;;;;4996222;28;21635;-71
2022/03/07 01:03:00;;;;;;;10.23;8.00;;;4.10;58.00;;;;;;4986385;28;20254;-71
2022/03/07 01:05:26;;;;;;;12.63;8.63;;;4.40;59.00;;;;;;4986703;28;20647;-71
2022/03/07 01:07:51;;;;;;;14.50;8.00;;;4.10;59.10;;;;;;4987797;28;20255;-71
2022/03/07 01:10:17;;;;;;;14.10;8.63;;;4.10;59.00;;;;;;4987478;28;20211;-70
2022/03/07 01:12:43;;;;;;;13.17;8.00;;;4.10;58.80;;;;;;4982530;28;20669;-71
2022/03/07 01:15:10;;;;;;;11.70;8.40;;;4.10;57.10;;;;;;4987095;28;20165;-71
2022/03/07 01:17:36;;;;;;;10.30;8.13;;;4.60;60.10;;;;;;4986623;28;20220;-71
2022/03/07 01:20:05;;;;;;;10.37;8.20;;;4.30;59.70;;;;;;4990130;28;20776;-71
2022/03/07 01:22:30;;;;;;;10.90;7.97;;;4.20;59.30;;;;;;4990037;28;20433;-71
2022/03/07 01:24:56;;;;;;;8.77;7.50;;;4.20;58.30;;;;;;4991315;28;20431;-71
2022/03/07 01:27:22;;;;;;;10.40;8.27;;;4.20;60.40;;;;;;4991181;28;20259;-71
2022/03/07 01:29:47;;;;;;;11.10;9.30;;;4.30;59.80;;;;;;4996614;28;20253;-71
2022/03/07 01:32:13;;;;;;;12.27;9.00;;;4.60;60.20;;;;;;5002712;28;20658;-71
2022/03/07 01:34:39;;;;;;;11.53;9.10;;;4.10;60.60;;;;;;4990596;28;20219;-71
2022/03/07 01:37:04;;;;;;;12.30;8.77;;;4.10;60.80;;;;;;4991233;28;20197;-70
2022/03/07 01:39:30;;;;;;;14.63;9.43;;;4.10;61.50;;;;;;4991317;28;20247;-70
2022/03/07 01:41:56;;;;;;;12.30;8.93;;;4.00;62.20;;;;;;4990798;28;20605;-71
2022/03/07 01:44:24;;;;;;;10.90;8.53;;;4.00;61.50;;;;;;4990946;28;20188;-70
2022/03/07 01:46:49;;;;;;;11.77;8.30;;;4.40;61.90;;;;;;4986309;28;20212;-71
2022/03/07 01:49:16;;;;;;;11.60;9.17;;;3.90;63.40;;;;;;4988304;28;20429;-71
2022/03/07 01:51:43;;;;;;;11.33;8.93;;;3.90;63.80;;;;;;4987752;28;20592;-71
2022/03/07 01:54:10;;;;;;;11.33;9.10;;;4.40;64.60;;;;;;4989400;28;20514;-70
2022/03/07 01:56:36;;;;;;;11.23;8.50;;;4.00;67.60;;;;;;4991125;28;20985;-71
2022/03/07 01:59:04;;;;;;;12.83;9.20;;;3.90;63.80;;;;;;4997617;28;20432;-71
2022/03/07 02:01:30;;;;;;;10.33;8.70;;;3.90;65.10;;;;;;4981393;28;20177;-71
2022/03/07 02:03:56;;;;;;;10.57;8.73;;;3.90;67.20;;;;;;4988812;28;20434;-70
2022/03/07 02:06:23;;;;;;;11.80;8.90;;;3.90;70.30;;;;;;4997353;28;20475;-71
2022/03/07 02:08:50;;;;;;;11.27;8.50;;;3.80;72.80;;;;;;4990470;28;20329;-70
2022/03/07 02:11:17;;;;;;;12.00;8.60;;;3.80;73.80;;;;;;4988621;28;20757;-70
2022/03/07 02:13:42;;;;;;;10.87;8.73;;;3.80;74.60;;;;;;4990304;28;20443;-71
2022/03/07 02:16:09;;;;;;;11.50;8.47;;;3.80;76.90;;;;;;4989957;28;20442;-70
2022/03/07 02:18:35;;;;;;;11.30;8.87;;;3.80;77.60;;;;;;4988813;28;20198;-70
2022/03/07 02:21:09;;;;;;;12.40;8.80;;;3.70;79.00;;;;;;4990835;28;21032;-70
2022/03/07 02:23:36;;;;;;;10.90;8.37;;;3.60;80.70;;;;;;4989743;28;20172;-70
2022/03/07 02:26:08;;;;;;;10.73;7.80;;;3.60;81.90;;;;;;4990904;28;20892;-71
2022/03/07 02:28:34;;;;;;;10.37;8.07;;;3.50;82.60;;;;;;4988158;28;20426;-71
2022/03/07 02:30:59;;;;;;;11.93;8.87;;;3.50;82.20;;;;;;4987778;28;20473;-71
2022/03/07 02:33:25;;;;;;;11.07;8.43;;;3.50;83.10;;;;;;4988617;28;20623;-71
2022/03/07 02:35:50;;;;;;;10.97;8.00;;;3.50;84.90;;;;;;4990518;28;20251;-70
2022/03/07 02:38:16;;;;;;;12.30;7.93;;;3.50;86.10;;;;;;4987377;28;20247;-71
2022/03/07 02:40:43;;;;;;;9.97;7.63;;;3.50;86.40;;;;;;4989806;28;20234;-70
2022/03/07 02:43:09;;;;;;;10.27;7.90;;;3.60;86.00;;;;;;4989550;28;20267;-71
2022/03/07 02:45:35;;;;;;;10.73;7.80;;;3.60;86.50;;;;;;4989851;28;20531;-70
2022/03/07 02:48:00;;;;;;;8.70;7.20;;;3.50;87.50;;;;;;4989047;28;20187;-71
2022/03/07 02:50:26;;;;;;;8.00;6.37;;;3.50;87.20;;;;;;4988803;28;20243;-70
2022/03/07 02:52:51;;;;;;;9.73;6.63;;;3.40;88.00;;;;;;4989489;28;20547;-71
2022/03/07 02:55:18;;;;;;;9.33;6.77;;;3.30;88.30;;;;;;4988948;28;20187;-71
2022/03/07 02:57:43;;;;;;;8.13;6.07;;;3.30;88.70;;;;;;4989438;28;20971;-70
2022/03/07 03:00:11;;;;;;;9.07;6.70;;;3.20;90.00;;;;;;4988994;28;20474;-70
2022/03/07 03:02:37;;;;;;;9.53;6.47;;;3.20;90.20;;;;;;4973166;28;20703;-70
2022/03/07 03:05:02;;;;;;;8.40;6.60;;;3.30;88.10;;;;;;4989063;28;20534;-71
2022/03/07 03:07:28;;;;;;;8.17;6.63;;;3.20;90.30;;;;;;4988098;28;20187;-71
2022/03/07 03:09:53;;;;;;;8.47;6.30;;;3.30;90.10;;;;;;4988752;28;20250;-71
2022/03/07 03:12:24;;;;;;;6.77;5.20;;;3.30;89.70;;;;;;4988657;28;20568;-71
2022/03/07 03:14:49;;;;;;;8.10;5.80;;;3.30;87.90;;;;;;4988804;28;20172;-70
2022/03/07 03:17:15;;;;;;;7.47;5.50;;;3.20;84.00;;;;;;4986936;28;20451;-71
2022/03/07 03:19:41;;;;;;;6.67;5.40;;;3.20;86.90;;;;;;4988845;28;20220;-71
2022/03/07 03:22:06;;;;;;;7.47;5.50;;;3.20;87.10;;;;;;4985077;28;20183;-70
2022/03/07 03:24:32;;;;;;;7.97;5.40;;;3.20;87.10;;;;;;4988991;28;20658;-71
2022/03/07 03:26:57;;;;;;;5.90;5.13;;;3.20;86.50;;;;;;4987886;28;20874;-71
2022/03/07 03:29:23;;;;;;;6.07;5.23;;;3.10;87.20;;;;;;4996278;28;20174;-71
2022/03/07 03:31:48;;;;;;;6.60;5.27;;;3.10;87.80;;;;;;4987776;28;20200;-71
2022/03/07 03:34:14;;;;;;;6.73;5.23;;;3.00;88.40;;;;;;4988626;28;20372;-70
2022/03/07 03:36:39;;;;;;;6.03;5.30;;;3.00;88.60;;;;;;4989520;28;20199;-71
2022/03/07 03:39:05;;;;;;;7.30;4.77;;;3.00;88.20;;;;;;4988850;28;20181;-71
2022/03/07 03:41:30;;;;;;;6.37;5.00;;;3.10;88.20;;;;;;4987991;28;20326;-71
2022/03/07 03:43:56;;;;;;;6.00;5.10;;;3.10;88.50;;;;;;4988570;28;20586;-70
2022/03/07 03:46:21;;;;;;;7.67;5.47;;;3.10;88.20;;;;;;4988324;28;20211;-71
2022/03/07 03:48:47;;;;;;;7.07;4.87;;;3.10;87.40;;;;;;4987491;28;20582;-71
2022/03/07 03:51:13;;;;;;;6.70;4.83;;;3.00;88.20;;;;;;4981519;28;20678;-70
2022/03/07 03:53:38;;;;;;;6.77;5.20;;;3.00;87.60;;;;;;4987918;28;20184;-70
2022/03/07 03:56:04;;;;;;;9.40;5.47;;;3.00;88.30;;;;;;4987638;28;20540;-71
2022/03/07 03:58:30;;;;;;;7.60;6.00;;;3.00;91.20;;;;;;4989410;28;20191;-71
2022/03/07 04:00:55;;;;;;;8.53;5.40;;;3.00;88.00;;;;;;4988083;28;20188;-71
2022/03/07 04:03:21;;;;;;;7.37;5.53;;;2.90;88.50;;;;;;4987406;28;20187;-71
2022/03/07 04:05:46;;;;;;;6.80;4.77;;;2.90;87.20;;;;;;4988659;28;20756;-71
2022/03/07 04:08:12;;;;;;;7.30;5.00;;;2.80;87.50;;;;;;4986480;28;20606;-71
2022/03/07 04:10:37;;;;;;;7.80;4.90;;;2.80;87.90;;;;;;4988384;28;20205;-71
2022/03/07 04:13:03;;;;;;;5.73;5.10;;;2.80;87.60;;;;;;4987840;28;21730;-71
2022/03/07 04:15:29;;;;;;;7.70;4.87;;;2.80;87.50;;;;;;4988333;28;20203;-71
2022/03/07 04:17:54;;;;;;;6.63;5.40;;;2.80;87.50;;;;;;4987536;28;20627;-73
2022/03/07 04:20:20;;;;;;;6.90;4.70;;;2.80;86.60;;;;;;4988021;28;20469;-71
2022/03/07 04:22:45;;;;;;;5.00;4.53;;;2.80;86.00;;;;;;4988471;28;20681;-71
2022/03/07 04:25:12;;;;;;;5.80;4.80;;;2.80;86.70;;;;;;4986773;28;20377;-71
2022/03/07 04:27:37;;;;;;;5.23;4.73;;;1.10;83.60;;;;;;4988528;28;20180;-71
2022/03/07 04:30:06;;;;;;;8.00;5.50;;;2.70;86.40;;;;;;4999127;28;20488;-71
2022/03/07 04:32:33;;;;;;;5.10;4.60;;;2.80;85.70;;;;;;4987054;28;20771;-71
2022/03/07 04:35:00;;;;;;;6.57;5.23;;;2.80;83.00;;;;;;4987878;28;20431;-71
2022/03/07 04:37:25;;;;;;;10.00;5.60;;;2.80;85.80;;;;;;4986423;28;20415;-71
2022/03/07 04:39:51;;;;;;;6.20;4.80;;;2.80;84.40;;;;;;4987421;28;20450;-72
2022/03/07 04:42:16;;;;;;;7.97;5.77;;;2.70;83.40;;;;;;4988058;28;20240;-71
2022/03/07 04:44:42;;;;;;;9.33;6.10;;;2.70;84.70;;;;;;4986383;28;20174;-70
2022/03/07 04:47:07;;;;;;;5.80;5.13;;;2.70;83.80;;;;;;4987227;28;20641;-71
2022/03/07 04:49:33;;;;;;;6.40;5.53;;;2.60;85.50;;;;;;4987568;28;20191;-70
2022/03/07 04:51:59;;;;;;;8.43;5.63;;;2.60;85.50;;;;;;4987199;28;20217;-71
2022/03/07 04:54:24;;;;;;;7.53;5.40;;;2.50;84.30;;;;;;4987428;28;20192;-71
2022/03/07 04:56:51;;;;;;;5.83;5.20;;;2.50;83.80;;;;;;4987903;28;20199;-71
2022/03/07 04:59:17;;;;;;;7.33;5.30;;;2.50;83.90;;;;;;4986232;28;20321;-71
2022/03/07 05:01:43;;;;;;;7.50;5.87;;;2.50;84.00;;;;;;4978423;28;20533;-71
2022/03/07 05:04:09;;;;;;;11.23;5.70;;;2.40;83.90;;;;;;4983089;28;20627;-71
2022/03/07 05:06:35;;;;;;;6.13;5.03;;;2.40;85.00;;;;;;4986389;28;20202;-70
2022/03/07 05:09:00;;;;;;;6.87;5.87;;;2.40;83.70;;;;;;4987920;28;20439;-70
2022/03/07 05:11:26;;;;;;;8.60;5.80;;;2.30;83.60;;;;;;4982620;28;20670;-70
2022/03/07 05:13:51;;;;;;;8.50;6.03;;;2.30;83.10;;;;;;4987363;28;20179;-70
2022/03/07 05:16:17;;;;;;;9.77;6.27;;;2.30;83.30;;;;;;4987852;28;20241;-71
2022/03/07 05:18:42;;;;;;;8.00;6.40;;;2.40;83.00;;;;;;4986195;28;20180;-71
2022/03/07 05:21:08;;;;;;;8.20;6.50;;;2.40;83.20;;;;;;4987175;28;20187;-71
2022/03/07 05:23:33;;;;;;;8.33;7.17;;;2.40;82.50;;;;;;4986903;28;20254;-71
2022/03/07 05:25:59;;;;;;;7.23;6.27;;;2.50;82.80;;;;;;4987381;28;20213;-71
2022/03/07 05:28:25;;;;;;;10.27;6.00;;;2.40;82.90;;;;;;4988994;28;20180;-70
2022/03/07 05:30:50;;;;;;;7.53;6.13;;;2.40;82.50;;;;;;4995918;28;20199;-70
2022/03/07 05:33:16;;;;;;;9.30;6.40;;;2.50;83.00;;;;;;4985677;28;20250;-70
2022/03/07 05:35:41;;;;;;;9.47;6.43;;;2.50;82.30;;;;;;4987365;28;20286;-70
2022/03/07 05:38:08;;;;;;;8.33;6.10;;;2.50;82.10;;;;;;4987574;28;20957;-71
2022/03/07 05:40:34;;;;;;;8.10;6.43;;;2.40;82.30;;;;;;4986284;28;20266;-70
2022/03/07 05:43:00;;;;;;;12.03;6.77;;;2.30;83.00;;;;;;4978314;28;20428;-70
2022/03/07 05:45:25;;;;;;;9.27;6.90;;;2.40;83.50;;;;;;4985756;28;20443;-70
2022/03/07 05:47:51;;;;;;;8.77;6.40;;;2.30;82.30;;;;;;4985166;28;20568;-70
2022/03/07 05:50:16;;;;;;;9.97;7.10;;;2.30;82.60;;;;;;4981536;28;20216;-70
2022/03/07 05:52:42;;;;;;;11.17;7.30;;;2.20;83.00;;;;;;4986368;28;20736;-70
2022/03/07 05:55:08;;;;;;;8.60;6.50;;;2.20;81.20;;;;;;4985532;28;20677;-70
2022/03/07 05:57:35;;;;;;;10.33;7.23;;;2.30;84.00;;;;;;4987512;28;20191;-70
2022/03/07 06:00:01;;;;;;;10.17;7.00;;;3.00;83.80;;;;;;4985247;28;20430;-71
2022/03/07 06:02:26;;;;;;;9.67;6.93;;;2.30;83.80;;;;;;4986531;28;20427;-70
2022/03/07 06:04:52;;;;;;;9.20;7.07;;;2.30;83.40;;;;;;4984856;28;20194;-70
2022/03/07 06:07:17;;;;;;;11.87;7.80;;;3.20;82.60;;;;;;4989728;28;20674;-70
2022/03/07 06:09:43;;;;;;;11.17;7.80;;;2.40;84.30;;;;;;4989295;28;20583;-70
2022/03/07 06:12:09;;;;;;;10.20;7.10;;;2.40;84.20;;;;;;4989208;28;20251;-70
2022/03/07 06:14:35;;;;;;;12.23;8.43;;;2.40;85.00;;;;;;4990808;28;20459;-70
2022/03/07 06:17:00;;;;;;;9.70;7.63;;;2.30;87.10;;;;;;4990340;28;20489;-70
2022/03/07 06:19:26;;;;;;;14.07;8.10;;;2.30;84.50;;;;;;4992688;28;20229;-71
2022/03/07 06:21:51;;;;;;;14.13;9.07;;;2.50;84.10;;;;;;4988897;28;20187;-70
2022/03/07 06:24:17;;;;;;;13.43;8.50;;;2.60;85.30;;;;;;4988433;28;20179;-71
2022/03/07 06:26:42;;;;;;;12.90;7.93;;;2.40;84.30;;;;;;4990593;28;20614;-70
2022/03/07 06:29:08;;;;;;;11.80;8.10;;;2.40;83.70;;;;;;5001255;28;20199;-70
2022/03/07 06:31:33;;;;;;;13.73;9.37;;;2.50;82.40;;;;;;4993768;28;20199;-71
2022/03/07 06:33:59;;;;;;;12.57;8.40;;;2.50;83.10;;;;;;4988852;28;20183;-70
2022/03/07 06:36:25;;;;;;;12.20;8.13;;;2.60;81.70;;;;;;4987790;28;20222;-71
2022/03/07 06:38:50;;;;;;;12.30;7.50;;;2.60;83.50;;;;;;4988977;28;20649;-70
2022/03/07 06:41:16;;;;;;;11.40;8.80;;;2.70;81.60;;;;;;4989641;28;20711;-71
2022/03/07 06:43:41;;;;;;;11.20;8.13;;;2.80;80.30;;;;;;4989541;28;20187;-71
2022/03/07 06:46:07;;;;;;;12.10;8.50;;;2.80;78.90;;;;;;4988834;28;20202;-71
2022/03/07 06:48:33;;;;;;;13.00;8.37;;;2.90;78.40;;;;;;4987504;28;20190;-71
2022/03/07 06:50:59;;;;;;;12.70;8.77;;;2.90;76.60;;;;;;4989980;28;20207;-72
2022/03/07 06:53:24;;;;;;;14.27;9.37;;;2.80;76.80;;;;;;4989671;28;20506;-71
2022/03/07 06:55:51;;;;;;;9.83;7.63;;;2.90;77.00;;;;;;4988244;28;20905;-72
2022/03/07 06:58:17;;;;;;;12.33;8.07;;;2.90;76.00;;;;;;4995523;28;20309;-71
2022/03/07 07:00:43;;;;;;;10.43;7.37;;;3.00;76.50;;;;;;4990907;28;20522;-70
2022/03/07 07:03:09;;;;;;;12.10;8.07;;;3.30;74.30;;;;;;4985734;28;20191;-72
2022/03/07 07:05:34;;;;;;;11.60;8.27;;;3.50;74.00;;;;;;4989145;28;20219;-71
2022/03/07 07:08:00;;;;;;;10.47;7.80;;;4.00;70.80;;;;;;4988721;28;20186;-71
2022/03/07 07:10:25;;;;;;;9.00;7.13;;;4.20;68.40;;;;;;4989153;28;20322;-71
2022/03/07 07:12:52;;;;;;;11.20;8.83;;;4.00;66.00;;;;;;4987893;28;20335;-71
2022/03/07 07:15:18;;;;;;;10.13;7.73;;;3.70;67.20;;;;;;4988545;28;20373;-71
2022/03/07 07:17:44;;;;;;;13.30;8.13;;;3.50;67.00;;;;;;4977139;28;20418;-72
2022/03/07 07:20:11;;;;;;;10.70;7.10;;;3.30;69.10;;;;;;4987628;28;20613;-71
2022/03/07 07:22:37;;;;;;;10.17;7.43;;;3.20;70.10;;;;;;4989561;28;20274;-71
2022/03/07 07:25:04;;;;;;;9.57;7.13;;;3.10;68.40;;;;;;4988949;28;20432;-71
2022/03/07 07:27:30;;;;;;;10.77;7.25;;;3.20;70.10;;;;;;4985769;28;20436;-70
2022/03/07 07:29:55;;;;;;;11.20;7.60;;;3.30;74.80;;;;;;4988118;28;20562;-71
2022/03/07 07:32:21;;;;;;;9.57;7.40;;;3.40;80.50;;;;;;4978645;28;20203;-70
2022/03/07 07:34:47;;;;;;;10.00;6.90;;;3.60;74.10;;;;;;4987325;28;20182;-70
2022/03/07 07:37:13;;;;;;;10.73;7.60;;;3.70;67.90;;;;;;4998848;28;20187;-70
2022/03/07 07:39:38;;;;;;;17.90;7.77;;;3.60;67.50;;;;;;4994667;28;20431;-71
2022/03/07 07:42:04;;;;;;;8.67;6.90;;;3.50;68.60;;;;;;4989355;28;20183;-71
2022/03/07 07:44:30;;;;;;;10.93;7.50;;;3.50;67.70;;;;;;4987670;28;20183;-72
2022/03/07 07:46:55;;;;;;;9.70;7.37;;;3.40;68.50;;;;;;4987253;28;20840;-72
2022/03/07 07:49:24;;;;;;;12.13;7.40;;;3.40;69.00;;;;;;4984139;28;20513;-71
2022/03/07 07:51:51;;;;;;;10.33;7.50;;;3.40;69.50;;;;;;4986051;28;20230;-71
2022/03/07 07:54:17;;;;;;;12.70;8.20;;;3.50;70.00;;;;;;4988915;28;20458;-71
2022/03/07 07:56:42;;;;;;;10.70;7.40;;;3.50;69.60;;;;;;4988295;28;20956;-70
2022/03/07 07:59:09;;;;;;;10.80;7.57;;;3.50;67.00;;;;;;4985003;28;20230;-71
2022/03/07 08:01:35;;;;;;;9.87;7.50;;;3.50;72.70;;;;;;4985589;28;20202;-71
2022/03/07 08:04:00;;;;;;;12.37;7.93;;;3.50;68.90;;;;;;4985475;28;20439;-71
2022/03/07 08:06:26;;;;;;;10.97;7.50;;;3.50;68.80;;;;;;4987188;28;20660;-71
2022/03/07 08:08:51;;;;;;;10.10;7.80;;;3.50;69.40;;;;;;4978338;28;20184;-71
2022/03/07 08:11:17;;;;;;;10.43;7.50;;;3.60;69.40;;;;;;4986727;28;20281;-71
2022/03/07 08:13:43;;;;;;;12.57;8.43;;;3.70;69.30;;;;;;4996266;28;20184;-71
2022/03/07 08:16:09;;;;;;;10.23;7.50;;;3.70;69.20;;;;;;4982425;28;20496;-71
2022/03/07 08:18:34;;;;;;;11.23;8.10;;;3.70;67.20;;;;;;4987694;28;20663;-70
2022/03/07 08:21:00;;;;;;;13.33;7.67;;;3.90;67.30;;;;;;4988633;28;20431;-71
2022/03/07 08:23:26;;;;;;;10.80;8.20;;;3.90;65.30;;;;;;4995497;28;20241;-71
2022/03/07 08:25:52;;;;;;;12.03;7.70;;;3.80;65.80;;;;;;4998724;28;20518;-71
2022/03/07 08:28:18;;;;;;;10.53;8.00;;;3.80;69.80;;;;;;4994480;28;20436;-70
2022/03/07 08:30:44;;;;;;;10.67;7.90;;;3.90;64.50;;;;;;4988021;28;20554;-71
2022/03/07 08:33:09;;;;;;;9.70;7.00;;;3.90;64.70;;;;;;4993555;28;20193;-71
2022/03/07 08:35:35;;;;;;;10.93;7.90;;;3.90;63.90;;;;;;4982088;28;20674;-69
2022/03/07 08:38:01;;;;;;;9.50;7.33;;;3.90;64.10;;;;;;4989685;28;20179;-70
2022/03/07 08:40:26;;;;;;;8.73;7.50;;;4.00;65.20;;;;;;4992689;28;20261;-73
2022/03/07 08:42:53;;;;;;;12.90;8.93;;;4.10;65.20;;;;;;4987567;28;20219;-70
2022/03/07 08:45:20;;;;;;;12.07;7.97;;;4.20;63.30;;;;;;4987603;28;20211;-69
2022/03/07 08:47:45;;;;;;;10.73;7.80;;;4.30;64.00;;;;;;4984428;28;21041;-69
2022/03/07 08:50:12;;;;;;;9.67;7.33;;;4.30;64.10;;;;;;4980609;28;20515;-72
2022/03/07 08:52:38;;;;;;;11.37;8.00;;;5.00;59.80;;;;;;4988443;28;20683;-72
2022/03/07 08:55:05;;;;;;;10.23;8.40;;;6.70;51.30;;;;;;4988027;28;20417;-71
2022/03/07 08:57:31;;;;;;;10.43;8.40;;;8.50;37.70;;;;;;4988973;28;20429;-71
2022/03/07 08:59:57;;;;;;;10.67;8.80;;;9.70;38.80;;;;;;4999726;28;20460;-71
2022/03/07 09:02:23;;;;;;;12.67;9.30;;;10.70;38.50;;;;;;4988021;28;20199;-71
2022/03/07 09:04:48;;;;;;;10.40;8.57;;;12.00;39.50;;;;;;4987930;28;20629;-72
2022/03/07 09:07:14;;;;;;;10.00;8.90;;;12.80;32.60;;;;;;4985647;28;20203;-73
2022/03/07 09:09:39;;;;;;;10.90;9.80;;;13.70;27.90;;;;;;4982860;28;20261;-71
2022/03/07 09:12:08;;;;;;;11.53;10.17;;;14.20;24.80;;;;;;4986099;28;20203;-72
2022/03/07 09:14:34;;;;;;;12.87;11.53;;;14.90;24.60;;;;;;4989945;28;20253;-72
2022/03/07 09:16:59;;;;;;;17.13;11.73;;;15.40;20.60;;;;;;4987696;28;20461;-72
2022/03/07 09:19:25;;;;;;;15.90;12.07;;;15.20;19.90;;;;;;4987036;28;20765;-73
2022/03/07 09:21:51;;;;;;;13.43;11.70;;;15.00;20.20;;;;;;4988672;28;20172;-73
2022/03/07 09:24:16;;;;;;;13.03;11.70;;;15.10;21.50;;;;;;4989808;28;20586;-72
2022/03/07 09:26:42;;;;;;;13.90;12.07;;;15.40;18.50;;;;;;4988456;28;20666;-72
2022/03/07 09:29:10;;;;;;;14.30;11.60;;;16.00;18.60;;;;;;4990503;28;20191;-72
2022/03/07 09:31:36;;;;;;;16.30;12.30;;;16.30;17.60;;;;;;4986836;28;20636;-73
2022/03/07 09:34:02;;;;;;;16.97;12.70;;;17.00;15.40;;;;;;4986818;28;20911;-72
2022/03/07 09:36:27;;;;;;;17.07;13.17;;;17.20;14.30;;;;;;4995962;28;20472;-71
2022/03/07 09:38:53;;;;;;;16.50;13.17;;;17.40;14.60;;;;;;4987689;28;20542;-71
2022/03/07 09:41:18;;;;;;;15.23;12.80;;;18.20;12.80;;;;;;4989374;28;20424;-71
2022/03/07 09:43:44;;;;;;;14.70;13.20;;;19.80;12.60;;;;;;4990058;28;20187;-71
2022/03/07 09:46:12;;;;;;;14.20;12.63;;;18.90;10.90;;;;;;4991075;28;20274;-71
2022/03/07 09:48:37;;;;;;;14.73;12.77;;;19.00;8.20;;;;;;4989160;28;20201;-72
2022/03/07 09:51:03;;;;;;;16.03;13.90;;;19.30;9.20;;;;;;4990770;28;20457;-72
2022/03/07 09:53:29;;;;;;;15.57;13.40;;;19.70;7.00;;;;;;4993542;28;20652;-72
2022/03/07 09:55:55;;;;;;;14.77;13.20;;;19.90;7.70;;;;;;4990051;28;20198;-71
2022/03/07 09:58:21;;;;;;;14.40;12.33;;;19.30;6.40;;;;;;4992335;28;20187;-72
2022/03/07 10:00:46;;;;;;;15.37;13.77;;;19.20;9.90;;;;;;5003487;28;20934;-72
2022/03/07 10:03:14;;;;;;;15.20;13.13;;;18.10;8.20;;;;;;5004792;28;20175;-71
2022/03/07 10:05:43;;;;;;;14.70;13.10;;;16.50;11.10;;;;;;4986564;28;20321;-71
2022/03/07 10:08:10;;;;;;;16.27;13.40;;;15.00;15.50;;;;;;4990183;28;20463;-71
2022/03/07 10:10:40;;;;;;;15.00;13.30;;;15.60;15.60;;;;;;4989969;28;20425;-71
2022/03/07 10:13:13;;;;;;;20.20;14.17;;;16.50;13.40;;;;;;4990524;28;20856;-71
2022/03/07 10:15:41;;;;;;;15.17;13.23;;;17.30;12.40;;;;;;4990432;28;20446;-71
2022/03/07 10:18:17;;;;;;;15.23;13.03;;;18.20;9.50;;;;;;4990818;28;20413;-72
2022/03/07 10:20:54;;;;;;;15.30;13.67;;;18.70;9.10;;;;;;4988458;28;20968;-71
2022/03/07 10:23:21;;;;;;;15.27;13.50;;;18.80;8.60;;;;;;4986239;28;20740;-71
2022/03/07 10:25:46;;;;;;;17.30;14.13;;;19.20;6.30;;;;;;4990862;28;20442;-71
2022/03/07 10:28:12;;;;;;;17.60;14.70;;;19.00;6.80;;;;;;4993062;28;20433;-72
2022/03/07 10:30:39;;;;;;;15.90;14.03;;;21.60;9.80;;;;;;4989482;28;20256;-71
2022/03/07 10:33:08;;;;;;;15.43;13.83;;;19.20;6.30;;;;;;4989478;28;20441;-71
2022/03/07 10:35:37;;;;;;;17.37;13.43;;;19.50;5.30;;;;;;4987866;28;20461;-71
2022/03/07 10:38:07;;;;;;;15.00;13.30;;;19.60;5.00;;;;;;4983176;28;20512;-71
2022/03/07 10:40:36;;;;;;;16.53;14.67;;;19.20;5.10;;;;;;4989450;28;20440;-69
2022/03/07 10:43:04;;;;;;;17.83;14.00;;;18.90;6.40;;;;;;4988920;28;20860;-71
2022/03/07 10:45:30;;;;;;;17.20;13.90;;;19.00;5.80;;;;;;4990351;28;20529;-71
2022/03/07 10:47:58;;;;;;;16.10;14.40;;;18.90;6.00;;;;;;4990214;28;20424;-71
2022/03/07 10:50:26;;;;;;;17.03;14.43;;;19.30;6.20;;;;;;4986023;28;20468;-71
2022/03/07 10:52:57;;;;;;;16.40;14.10;;;20.30;3.60;;;;;;4989959;28;20465;-71
2022/03/07 10:55:25;;;;;;;15.50;13.90;;;21.20;1.80;;;;;;4986448;28;20524;-75
2022/03/07 10:57:51;;;;;;;16.47;14.77;;;22.40;1.00;;;;;;4987962;28;21070;-72
2022/03/07 11:00:17;;;;;;;16.70;14.93;;;22.20;1.00;;;;;;4996005;28;20501;-72
2022/03/07 11:02:47;;;;;;;16.17;14.47;;;20.70;1.00;;;;;;4984631;28;20186;-71
2022/03/07 11:05:14;;;;;;;17.10;15.30;;;21.20;1.00;;;;;;4989650;28;20453;-71
2022/03/07 11:07:45;;;;;;;17.50;15.60;;;21.10;1.00;;;;;;4990812;28;20509;-71
2022/03/07 11:10:12;;;;;;;17.00;14.97;;;20.70;1.20;;;;;;4991064;28;20668;-71
2022/03/07 11:12:38;;;;;;;16.37;14.67;;;20.10;2.10;;;;;;4990389;28;20480;-71
2022/03/07 11:15:10;;;;;;;17.27;15.40;;;21.20;1.00;;;;;;4990113;28;20422;-71
2022/03/07 11:17:44;;;;;;;19.30;16.37;;;21.20;1.00;;;;;;4987226;28;20500;-71
2022/03/07 11:20:12;;;;;;;16.50;14.90;;;22.60;1.00;;;;;;4989908;28;20406;-71
2022/03/07 11:22:38;;;;;;;17.90;16.10;;;23.80;1.00;;;;;;4989662;28;20460;-71
2022/03/07 11:25:06;;;;;;;17.40;15.40;;;23.30;1.00;;;;;;4990059;28;20419;-71
2022/03/07 11:27:32;;;;;;;18.23;16.27;;;23.40;1.00;;;;;;4990432;28;20709;-71
2022/03/07 11:29:58;;;;;;;19.73;16.83;;;23.50;1.00;;;;;;5001337;28;20452;-71
2022/03/07 11:32:24;;;;;;;18.70;16.70;;;23.30;1.00;;;;;;4992554;28;20842;-71
2022/03/07 11:34:56;;;;;;;19.80;17.80;;;23.40;1.00;;;;;;4990196;28;20397;-71
2022/03/07 11:37:27;;;;;;;19.10;17.10;;;21.80;1.00;;;;;;4987098;28;20317;-71
2022/03/07 11:39:56;;;;;;;19.73;16.63;;;21.80;1.00;;;;;;4989098;28;20574;-70
2022/03/07 11:42:22;;;;;;;18.63;16.43;;;22.10;1.00;;;;;;4983691;28;20539;-71
2022/03/07 11:44:48;;;;;;;19.03;16.63;;;22.10;1.00;;;;;;4989650;28;20521;-70
2022/03/07 11:47:22;;;;;;;19.50;17.50;;;22.40;1.00;;;;;;4988182;28;20457;-70
2022/03/07 11:49:59;;;;;;;18.93;16.93;;;22.40;1.00;;;;;;4983946;28;20518;-70
2022/03/07 11:52:25;;;;;;;18.27;16.43;;;22.70;1.00;;;;;;4996327;28;20464;-70
2022/03/07 11:54:57;;;;;;;21.00;15.90;;;23.10;1.00;;;;;;5003495;28;20807;-71
2022/03/07 11:57:37;;;;;;;17.83;15.97;;;24.00;1.00;;;;;;4984957;28;20171;-72
2022/03/07 12:00:13;;;;;;;17.40;15.60;;;23.80;1.00;;;;;;4979730;28;20179;-70
2022/03/07 12:02:44;;;;;;;17.93;16.03;;;23.60;1.00;;;;;;4985425;28;20797;-71
2022/03/07 12:05:29;;;;;;;18.37;16.47;;;23.00;1.00;;;;;;4987845;28;20532;-71
2022/03/07 12:08:15;;;;;;;16.80;15.17;;;23.00;1.00;;;;;;4989731;28;20405;-71
2022/03/07 12:10:55;;;;;;;16.13;14.43;;;22.90;1.00;;;;;;4995666;28;20450;-70
2022/03/07 12:13:21;;;;;;;16.90;14.67;;;22.60;1.00;;;;;;4986267;28;20476;-72
2022/03/07 12:15:53;;;;;;;16.10;14.40;;;22.40;1.00;;;;;;4987921;28;20502;-70
2022/03/07 12:18:19;;;;;;;16.70;14.43;;;22.30;1.00;;;;;;4988170;28;20306;-71
2022/03/07 12:20:50;;;;;;;16.60;14.80;;;22.60;1.00;;;;;;4989068;28;20426;-71
2022/03/07 12:23:18;;;;;;;15.10;13.60;;;22.30;1.00;;;;;;4987742;28;20568;-71
2022/03/07 12:25:44;;;;;;;15.87;14.17;;;24.30;1.00;;;;;;4988073;28;20429;-70
2022/03/07 12:28:11;;;;;;;15.40;13.80;;;23.00;1.00;;;;;;4990935;28;20790;-71
2022/03/07 12:30:36;;;;;;;15.23;13.60;;;23.20;1.00;;;;;;5000459;28;20409;-71
2022/03/07 12:33:10;;;;;;;14.67;13.20;;;23.50;1.00;;;;;;4989079;28;20426;-71
2022/03/07 12:35:36;;;;;;;17.43;14.63;;;22.80;1.00;;;;;;4988568;28;20269;-70
2022/03/07 12:38:07;;;;;;;16.50;14.30;;;23.00;1.00;;;;;;4988711;28;20697;-70
2022/03/07 12:40:34;;;;;;;15.23;13.63;;;23.30;1.00;;;;;;4988720;28;20430;-70
2022/03/07 12:43:01;;;;;;;15.60;14.00;;;23.40;1.00;;;;;;4988304;28;20640;-70